KMHV/MHV METAR and TAF weather

Enter ICAO airport designator
Station Type Date Time Source
KMHV METAR 2021/07/26 14:00 UTC NOAA

KMHV 261400Z AUTO 13006KT 10SM FEW040 BKN080 OVC090 24/07 A3000 RMK A01


Station Type Date Time Source
KMHV Decoded METAR 2021/07/26 14:00 UTC NOAA

Mojave, CA, United States (KMHV) 35-04N 118-09W
Jul 26, 2021 - 10:00 AM EDT / 2021.07.26 1400 UTC
Wind: from the SE (130 degrees) at 7 MPH (6 KT):0
Visibility: 10 mile(s):0
Sky conditions: overcast
Temperature: 75 F (24 C)
Dew Point: 44 F (7 C)
Relative Humidity: 33%
Pressure (altimeter): 30 in. Hg (1015 hPa)
ob: KMHV 261400Z AUTO 13006KT 10SM FEW040 BKN080 OVC090 24/07 A3000 RMK A01
cycle: 14

Station Type Date Time Source
KMHV TAF UTC NOAA

Error!

Example: see airport list